Time;durP1;ratioP1;P1;durP2;ratioP2;P2;SDS_P1;SDS_P2;PMS_P1;PMS_P2;Temp;Humidity;BMP_temperature;BMP_pressure;BME280_temperature;BME280_humidity;BME280_pressure;Samples;Min_cycle;Max_cycle;Signal;HPM_P1;HPM_P2
2021/03/27 00:02:24;;;;;;;34.03;20.67;;;;;;;;;;5041239;28;20222;-95
2021/03/27 00:04:54;;;;;;;33.13;21.42;;;;;;;;;;5038436;28;20211;-96
2021/03/27 00:07:22;;;;;;;28.13;19.67;;;;;;;;;;5032444;28;20201;-96
2021/03/27 00:09:49;;;;;;;27.98;20.27;;;;;;;;;;5006620;28;20216;-96
2021/03/27 00:12:22;;;;;;;33.40;21.13;;;;;;;;;;5031627;28;20278;-95
2021/03/27 00:14:53;;;;;;;33.33;22.65;;;;;;;;;;5011224;28;20212;-95
2021/03/27 00:17:24;;;;;;;29.33;19.50;;;;;;;;;;5023824;28;20207;-96
2021/03/27 00:19:54;;;;;;;31.60;20.70;;;;;;;;;;5038959;28;20195;-96
2021/03/27 00:22:23;;;;;;;22.70;16.65;;;;;;;;;;5039898;28;20192;-95
2021/03/27 00:25:10;;;;;;;30.48;18.15;;;;;;;;;;5037636;28;20176;-94
2021/03/27 00:27:40;;;;;;;27.90;19.13;;;;;;;;;;5037821;28;20188;-96
2021/03/27 00:30:09;;;;;;;26.38;17.77;;;;;;;;;;5006748;28;20274;-95
2021/03/27 00:40:22;;;;;;;27.50;17.40;;;;;;;;;;5450833;23;20270;-96
2021/03/27 00:42:51;;;;;;;28.17;18.35;;;;;;;;;;5033493;28;20227;-96
2021/03/27 00:45:19;;;;;;;28.08;17.85;;;;;;;;;;5028858;28;20233;-96
2021/03/27 00:47:49;;;;;;;29.13;18.08;;;;;;;;;;5023694;28;20212;-96
2021/03/27 01:24:47;;;;;;;27.58;17.25;;;;;;;;;;5209324;22;20213;-96
2021/03/27 01:27:20;;;;;;;27.30;16.50;;;;;;;;;;5015695;28;20208;-96
2021/03/27 01:29:52;;;;;;;30.73;16.85;;;;;;;;;;5019098;28;20212;-94
2021/03/27 01:32:20;;;;;;;24.80;16.20;;;;;;;;;;5019854;28;20248;-93
2021/03/27 05:24:36;;;;;;;44.95;29.13;;;;;;;;;;4970911;29;20218;-96
2021/03/27 05:29:42;;;;;;;44.00;28.95;;;;;;;;;;5370289;23;20230;-95
2021/03/27 05:32:19;;;;;;;58.58;31.40;;;;;;;;;;4959720;29;20227;-96
2021/03/27 05:34:47;;;;;;;47.75;31.13;;;;;;;;;;4959952;29;20195;-94
2021/03/27 05:39:55;;;;;;;47.88;29.27;;;;;;;;;;5789310;23;20237;-96
2021/03/27 05:42:40;;;;;;;44.85;27.65;;;;;;;;;;4995113;28;20227;-96
2021/03/27 05:45:29;;;;;;;37.05;25.25;;;;;;;;;;4985051;28;20251;-96
2021/03/27 05:48:13;;;;;;;37.63;25.63;;;;;;;;;;5006012;28;20206;-96
2021/03/27 05:50:57;;;;;;;37.38;26.70;;;;;;;;;;4988579;28;20213;-96
2021/03/27 05:53:56;;;;;;;35.72;24.65;;;;;;;;;;4989693;28;20213;-96
2021/03/27 05:56:45;;;;;;;45.80;25.38;;;;;;;;;;4992616;28;20206;-95
2021/03/27 05:59:23;;;;;;;40.15;25.27;;;;;;;;;;4984643;28;20198;-96
2021/03/27 06:01:52;;;;;;;38.67;26.00;;;;;;;;;;4990728;28;20212;-96
2021/03/27 06:04:30;;;;;;;34.53;23.63;;;;;;;;;;5008071;28;20209;-96
2021/03/27 06:07:15;;;;;;;40.78;25.40;;;;;;;;;;4976894;28;20232;-96
2021/03/27 06:09:49;;;;;;;42.00;25.73;;;;;;;;;;4992772;28;20207;-96
2021/03/27 06:12:29;;;;;;;44.63;25.13;;;;;;;;;;4995616;28;20228;-95
2021/03/27 06:15:04;;;;;;;41.85;30.73;;;;;;;;;;4976320;28;20258;-96
2021/03/27 06:17:33;;;;;;;33.72;25.85;;;;;;;;;;4978622;28;20207;-96
2021/03/27 06:20:15;;;;;;;39.65;26.23;;;;;;;;;;5001013;28;20207;-96
2021/03/27 06:23:06;;;;;;;37.03;27.02;;;;;;;;;;5004161;28;20214;-96
2021/03/27 06:25:48;;;;;;;36.58;28.67;;;;;;;;;;4975161;28;20225;-96
2021/03/27 06:28:28;;;;;;;39.47;27.70;;;;;;;;;;4989794;28;20206;-96
2021/03/27 06:31:08;;;;;;;36.55;25.55;;;;;;;;;;4980135;28;20203;-95
2021/03/27 06:33:43;;;;;;;35.40;24.33;;;;;;;;;;4989521;28;20218;-96
2021/03/27 06:36:20;;;;;;;37.58;25.65;;;;;;;;;;4984633;28;20241;-95
2021/03/27 06:39:03;;;;;;;34.88;24.00;;;;;;;;;;4988682;28;20276;-96
2021/03/27 06:41:43;;;;;;;34.13;23.17;;;;;;;;;;4983731;28;20242;-95
2021/03/27 06:44:21;;;;;;;31.45;22.33;;;;;;;;;;4992138;28;20205;-95
2021/03/27 06:46:56;;;;;;;31.95;21.67;;;;;;;;;;4979902;28;20218;-95
2021/03/27 06:49:41;;;;;;;30.48;22.45;;;;;;;;;;4988107;28;20267;-95
2021/03/27 06:52:23;;;;;;;34.53;22.52;;;;;;;;;;4988579;28;20227;-95
2021/03/27 06:54:55;;;;;;;32.65;22.83;;;;;;;;;;4986182;28;20319;-94
2021/03/27 06:57:39;;;;;;;35.30;23.42;;;;;;;;;;4984009;28;20219;-95
2021/03/27 07:00:33;;;;;;;31.55;22.10;;;;;;;;;;4976423;28;20214;-94
2021/03/27 07:03:23;;;;;;;30.75;22.58;;;;;;;;;;4982658;28;20208;-94
2021/03/27 07:06:04;;;;;;;32.90;21.30;;;;;;;;;;4985221;28;21195;-94
2021/03/27 07:08:55;;;;;;;27.98;21.30;;;;;;;;;;4977622;28;20244;-94
2021/03/27 07:11:42;;;;;;;27.33;20.15;;;;;;;;;;4991968;28;20287;-95
2021/03/27 07:14:26;;;;;;;31.15;21.25;;;;;;;;;;4983606;28;20274;-94
2021/03/27 07:17:03;;;;;;;31.73;20.88;;;;;;;;;;4985417;28;20216;-96
2021/03/27 07:19:59;;;;;;;28.63;20.37;;;;;;;;;;4986062;28;20216;-96
2021/03/27 07:22:42;;;;;;;27.47;21.33;;;;;;;;;;4977709;28;20492;-95
2021/03/27 07:25:25;;;;;;;31.57;21.40;;;;;;;;;;4983851;28;20464;-95
2021/03/27 07:27:57;;;;;;;28.30;21.57;;;;;;;;;;4985988;28;20466;-94
2021/03/27 07:30:29;;;;;;;29.30;21.70;;;;;;;;;;4988854;28;20449;-93
2021/03/27 07:33:21;;;;;;;27.90;19.70;;;;;;;;;;4979019;28;20230;-94
2021/03/27 07:36:11;;;;;;;26.80;20.60;;;;;;;;;;4975365;28;20447;-95
2021/03/27 07:38:42;;;;;;;26.00;20.43;;;;;;;;;;4932887;28;20452;-94
2021/03/27 07:41:27;;;;;;;27.67;20.37;;;;;;;;;;4977623;28;20480;-96
2021/03/27 07:44:10;;;;;;;25.93;19.07;;;;;;;;;;4972110;28;20945;-96
2021/03/27 07:46:54;;;;;;;22.43;17.93;;;;;;;;;;4982293;28;20442;-94
2021/03/27 07:49:26;;;;;;;26.77;19.80;;;;;;;;;;4976917;28;20457;-96
2021/03/27 07:52:00;;;;;;;23.10;17.60;;;;;;;;;;4990381;28;20511;-96
2021/03/27 07:58:04;;;;;;;20.93;14.77;;;;;;;;;;4965447;28;20471;-96
2021/03/27 08:06:21;;;;;;;22.47;16.10;;;;;;;;;;5168137;23;20526;-94
2021/03/27 08:09:00;;;;;;;22.97;16.90;;;;;;;;;;4954360;29;20514;-96
2021/03/27 08:11:53;;;;;;;22.03;16.57;;;;;;;;;;4950748;29;20491;-96
2021/03/27 08:14:50;;;;;;;25.17;18.13;;;;;;;;;;4952307;29;20490;-95
2021/03/27 08:18:08;;;;;;;25.20;19.53;;;;;;;;;;4959031;29;20438;-96
2021/03/27 08:23:18;;;;;;;26.67;18.88;;;;;;;;;;5032696;23;20546;-96
2021/03/27 08:25:50;;;;;;;29.13;18.60;;;;;;;;;;4973941;28;20365;-94
2021/03/27 08:28:35;;;;;;;23.83;18.50;;;;;;;;;;4980986;28;20441;-96
2021/03/27 08:31:13;;;;;;;19.50;16.03;;;;;;;;;;4968106;28;20536;-96
2021/03/27 08:34:06;;;;;;;20.90;15.67;;;;;;;;;;4974620;28;20437;-96
2021/03/27 08:36:45;;;;;;;19.93;17.03;;;;;;;;;;5074945;23;20502;-96
2021/03/27 08:39:26;;;;;;;22.30;17.67;;;;;;;;;;4974864;28;20485;-94
2021/03/27 08:42:02;;;;;;;21.37;16.00;;;;;;;;;;4973762;28;20493;-95
2021/03/27 08:44:44;;;;;;;21.10;17.13;;;;;;;;;;4970731;28;20563;-96
2021/03/27 08:47:26;;;;;;;23.43;18.63;;;;;;;;;;4971413;28;20466;-96
2021/03/27 08:50:13;;;;;;;25.40;18.40;;;;;;;;;;4968011;28;20465;-90
2021/03/27 08:52:44;;;;;;;21.13;16.93;;;;;;;;;;4965733;28;20628;-93
2021/03/27 08:55:25;;;;;;;19.83;16.53;;;;;;;;;;4972821;28;20469;-92
2021/03/27 08:58:08;;;;;;;25.33;17.33;;;;;;;;;;4967124;28;20487;-92
2021/03/27 09:00:44;;;;;;;25.10;17.30;;;;;;;;;;4973059;28;20465;-93
2021/03/27 09:03:25;;;;;;;20.70;15.13;;;;;;;;;;4975180;28;20493;-94
2021/03/27 10:47:03;;;;;;;9.03;8.13;;;;;;;;;;5116234;27;800002;-95
2021/03/27 10:49:34;;;;;;;9.20;8.30;;;;;;;;;;5127421;28;20918;-92
2021/03/27 10:52:18;;;;;;;11.63;7.80;;;;;;;;;;5128270;28;20440;-92
2021/03/27 10:55:06;;;;;;;8.80;7.97;;;;;;;;;;5126268;28;21392;-93
2021/03/27 10:57:50;;;;;;;8.53;7.63;;;;;;;;;;5138344;28;20446;-92
2021/03/27 11:00:24;;;;;;;8.17;7.37;;;;;;;;;;5110355;28;20455;-93
2021/03/27 11:02:59;;;;;;;9.03;8.13;;;;;;;;;;5131139;28;20446;-95
2021/03/27 11:05:43;;;;;;;10.90;8.40;;;;;;;;;;5134325;28;20459;-96
2021/03/27 11:08:28;;;;;;;8.73;7.83;;;;;;;;;;5119368;28;20443;-96
2021/03/27 11:11:03;;;;;;;8.43;7.63;;;;;;;;;;5129132;28;20542;-95
2021/03/27 11:13:39;;;;;;;7.60;6.90;;;;;;;;;;5131319;28;20472;-93
2021/03/27 11:16:17;;;;;;;9.13;7.60;;;;;;;;;;5122348;28;20486;-94
2021/03/27 11:18:57;;;;;;;8.70;7.90;;;;;;;;;;5127161;28;20443;-96
2021/03/27 11:21:43;;;;;;;8.37;7.57;;;;;;;;;;5100837;22;20489;-95
2021/03/27 11:24:25;;;;;;;8.50;7.60;;;;;;;;;;5096313;22;20907;-94
2021/03/27 11:27:07;;;;;;;8.80;7.90;;;;;;;;;;5096599;28;20469;-96
2021/03/27 11:29:37;;;;;;;9.00;7.23;;;;;;;;;;5092918;28;20460;-94
2021/03/27 11:32:10;;;;;;;8.83;7.97;;;;;;;;;;5108120;28;20477;-96
2021/03/27 11:34:41;;;;;;;8.10;7.30;;;;;;;;;;5111401;28;20466;-96
2021/03/27 11:37:16;;;;;;;7.60;6.90;;;;;;;;;;5129822;22;20464;-96
2021/03/27 11:39:45;;;;;;;7.30;6.63;;;;;;;;;;5124642;28;20446;-95
2021/03/27 11:42:18;;;;;;;9.90;7.03;;;;;;;;;;5104232;28;20476;-95
2021/03/27 11:44:54;;;;;;;7.70;7.00;;;;;;;;;;5116605;28;20444;-96
2021/03/27 11:47:25;;;;;;;9.47;7.60;;;;;;;;;;5122298;28;20441;-96
2021/03/27 11:53:10;;;;;;;8.70;7.77;;;;;;;;;;5105199;28;20515;-95
2021/03/27 11:55:39;;;;;;;8.33;7.50;;;;;;;;;;5354590;22;20595;-94
2021/03/27 11:58:12;;;;;;;8.00;7.20;;;;;;;;;;5066722;28;20453;-96
2021/03/27 12:00:50;;;;;;;8.50;7.70;;;;;;;;;;5070588;28;20454;-94
2021/03/27 12:03:20;;;;;;;8.40;7.47;;;;;;;;;;5075350;28;20454;-96
2021/03/27 12:05:49;;;;;;;7.73;7.03;;;;;;;;;;5056056;28;20450;-96
2021/03/27 12:10:55;;;;;;;8.33;7.43;;;;;;;;;;5056553;28;20522;-96
2021/03/27 12:13:25;;;;;;;8.03;7.00;;;;;;;;;;5049361;28;20469;-96
2021/03/27 12:15:54;;;;;;;8.00;7.20;;;;;;;;;;5052818;28;20660;-95
2021/03/27 12:18:50;;;;;;;8.27;7.33;;;;;;;;;;5054039;28;20452;-96
2021/03/27 12:21:24;;;;;;;7.60;6.80;;;;;;;;;;5048914;28;20439;-95
2021/03/27 12:26:30;;;;;;;8.10;7.40;;;;;;;;;;5097140;22;20551;-95
2021/03/27 12:29:02;;;;;;;6.93;6.13;;;;;;;;;;5034740;28;20443;-96
2021/03/27 12:31:45;;;;;;;7.40;6.63;;;;;;;;;;5034624;28;20422;-96
2021/03/27 12:34:14;;;;;;;8.17;7.30;;;;;;;;;;5020701;28;20465;-94
2021/03/27 12:36:47;;;;;;;6.93;6.23;;;;;;;;;;5027021;28;20488;-94
2021/03/27 12:39:22;;;;;;;9.80;7.30;;;;;;;;;;5020773;28;20456;-94
2021/03/27 12:41:50;;;;;;;7.77;6.97;;;;;;;;;;5017112;28;20477;-96
2021/03/27 12:44:20;;;;;;;6.97;6.37;;;;;;;;;;5038136;28;20446;-96
2021/03/27 12:46:55;;;;;;;7.43;6.73;;;;;;;;;;5029935;28;20830;-95
2021/03/27 12:49:36;;;;;;;7.37;6.67;;;;;;;;;;5033446;28;20490;-95
2021/03/27 12:52:13;;;;;;;7.63;6.93;;;;;;;;;;5037142;28;20471;-94
2021/03/27 12:54:41;;;;;;;7.30;6.40;;;;;;;;;;5021622;28;20460;-94
2021/03/27 12:57:28;;;;;;;7.80;7.00;;;;;;;;;;5022218;28;20464;-96
2021/03/27 13:03:01;;;;;;;10.83;7.00;;;;;;;;;;5327739;22;20528;-95
2021/03/27 13:05:32;;;;;;;7.50;6.80;;;;;;;;;;5018096;28;20468;-96
2021/03/27 13:08:01;;;;;;;8.77;6.37;;;;;;;;;;5254769;22;20665;-96
2021/03/27 13:13:45;;;;;;;7.30;6.70;;;;;;;;;;5477613;22;20489;-96
2021/03/27 13:16:15;;;;;;;7.40;6.67;;;;;;;;;;5054957;28;20508;-94
2021/03/27 13:18:49;;;;;;;7.70;6.37;;;;;;;;;;5048377;28;21249;-93
2021/03/27 13:21:48;;;;;;;8.07;7.27;;;;;;;;;;5051279;28;20549;-94
2021/03/27 13:24:18;;;;;;;6.80;6.07;;;;;;;;;;5012910;28;20453;-96
2021/03/27 13:29:44;;;;;;;6.70;6.10;;;;;;;;;;5043596;28;20457;-96
2021/03/27 13:32:28;;;;;;;6.00;5.43;;;;;;;;;;5060306;22;20497;-95
2021/03/27 13:38:00;;;;;;;6.23;5.57;;;;;;;;;;5212266;22;20584;-96
2021/03/27 13:40:29;;;;;;;6.10;5.60;;;;;;;;;;5124265;28;20444;-96
2021/03/27 13:43:04;;;;;;;6.30;5.60;;;;;;;;;;5123381;28;20466;-96
2021/03/27 13:45:35;;;;;;;6.60;5.87;;;;;;;;;;5126632;27;20443;-95
2021/03/27 13:48:06;;;;;;;7.70;6.57;;;;;;;;;;5115634;27;20462;-94
2021/03/27 13:50:39;;;;;;;6.40;5.80;;;;;;;;;;5113472;28;20476;-96
2021/03/27 13:53:13;;;;;;;7.20;6.47;;;;;;;;;;5117676;28;20474;-96
2021/03/27 13:55:43;;;;;;;7.07;6.37;;;;;;;;;;5110345;28;20515;-96
2021/03/27 13:58:16;;;;;;;6.67;6.07;;;;;;;;;;5107391;28;20964;-96
2021/03/27 14:00:49;;;;;;;7.50;6.70;;;;;;;;;;5109040;28;20450;-96
2021/03/27 14:03:19;;;;;;;7.37;6.67;;;;;;;;;;5115032;28;20529;-96
2021/03/27 14:05:58;;;;;;;8.43;5.70;;;;;;;;;;5111619;28;20446;-94
2021/03/27 14:08:51;;;;;;;7.40;6.70;;;;;;;;;;5103502;28;20435;-96
2021/03/27 14:11:22;;;;;;;7.20;5.97;;;;;;;;;;5117605;28;20947;-96
2021/03/27 14:13:54;;;;;;;7.43;6.30;;;;;;;;;;5116526;28;20470;-96
2021/03/27 14:16:37;;;;;;;6.97;6.27;;;;;;;;;;5103995;28;20486;-95
2021/03/27 14:22:04;;;;;;;6.43;5.30;;;;;;;;;;5117841;27;20474;-95
2021/03/27 14:24:38;;;;;;;5.70;5.20;;;;;;;;;;5104535;28;20504;-96
2021/03/27 14:27:15;;;;;;;6.87;6.27;;;;;;;;;;5113943;28;20494;-96
2021/03/27 14:29:47;;;;;;;6.83;6.23;;;;;;;;;;5105146;28;20446;-96
2021/03/27 14:32:17;;;;;;;7.80;5.70;;;;;;;;;;5108222;28;21325;-95
2021/03/27 14:34:59;;;;;;;7.37;6.60;;;;;;;;;;5113682;28;20454;-96
2021/03/27 14:37:31;;;;;;;6.47;5.87;;;;;;;;;;5114973;28;20450;-96
2021/03/27 14:40:03;;;;;;;7.23;6.40;;;;;;;;;;5116507;28;20451;-96
2021/03/27 14:42:35;;;;;;;5.93;5.43;;;;;;;;;;5120430;28;20461;-96
2021/03/27 14:45:06;;;;;;;6.73;6.03;;;;;;;;;;5124142;27;20452;-96
2021/03/27 14:47:51;;;;;;;7.17;6.47;;;;;;;;;;5117420;28;20478;-96
2021/03/27 14:50:23;;;;;;;9.77;6.63;;;;;;;;;;5129748;28;20443;-95
2021/03/27 14:53:01;;;;;;;6.40;5.80;;;;;;;;;;5111740;28;20442;-96
2021/03/27 14:55:29;;;;;;;6.77;6.00;;;;;;;;;;5111885;28;20479;-96
2021/03/27 14:58:01;;;;;;;7.63;6.20;;;;;;;;;;5116991;28;20468;-96
2021/03/27 15:00:32;;;;;;;6.40;5.80;;;;;;;;;;5109321;28;20445;-95
2021/03/27 15:03:04;;;;;;;6.23;5.50;;;;;;;;;;5113916;28;20443;-96
2021/03/27 15:05:32;;;;;;;7.50;6.20;;;;;;;;;;5092427;28;20504;-96
2021/03/27 15:08:00;;;;;;;5.80;5.20;;;;;;;;;;5110389;28;20897;-96
2021/03/27 15:10:34;;;;;;;5.07;4.67;;;;;;;;;;5118856;28;20451;-96
2021/03/27 15:13:10;;;;;;;5.30;4.80;;;;;;;;;;5113890;28;20456;-96
2021/03/27 15:20:53;;;;;;;6.17;5.57;;;;;;;;;;5881343;22;20471;-96
2021/03/27 15:39:06;;;;;;;9.70;5.93;;;;;;;;;;5078705;28;20460;-96
2021/03/27 15:41:36;;;;;;;6.80;6.03;;;;;;;;;;5084345;28;20522;-95
2021/03/27 15:44:06;;;;;;;7.03;5.30;;;;;;;;;;5071742;28;20438;-95
2021/03/27 15:46:39;;;;;;;11.47;6.30;;;;;;;;;;5071932;28;20536;-94
2021/03/27 15:49:23;;;;;;;8.20;5.90;;;;;;;;;;5088224;28;20444;-96
2021/03/27 15:54:39;;;;;;;6.20;5.53;;;;;;;;;;5065705;28;20463;-96
2021/03/27 15:57:20;;;;;;;6.73;6.10;;;;;;;;;;5089896;28;20466;-96
2021/03/27 16:00:06;;;;;;;9.00;6.37;;;;;;;;;;5091659;28;20450;-95
2021/03/27 16:02:39;;;;;;;8.70;7.17;;;;;;;;;;5632170;22;20499;-96
2021/03/27 16:05:16;;;;;;;7.67;6.60;;;;;;;;;;5198700;22;20481;-95
2021/03/27 16:07:48;;;;;;;7.60;6.90;;;;;;;;;;5343283;22;20449;-94
2021/03/27 16:10:17;;;;;;;8.60;7.43;;;;;;;;;;5095196;28;20479;-96
2021/03/27 16:12:47;;;;;;;9.47;7.90;;;;;;;;;;5153852;22;20489;-93
2021/03/27 16:15:19;;;;;;;8.60;7.00;;;;;;;;;;5085634;28;20489;-96
2021/03/27 16:18:16;;;;;;;10.50;7.57;;;;;;;;;;5175256;22;20494;-95
2021/03/27 16:20:44;;;;;;;9.20;7.43;;;;;;;;;;5154021;22;20488;-96
2021/03/27 16:23:20;;;;;;;8.70;7.80;;;;;;;;;;5082035;28;20519;-95
2021/03/27 16:25:59;;;;;;;8.53;7.13;;;;;;;;;;5105494;28;20460;-96
2021/03/27 16:28:42;;;;;;;9.00;8.10;;;;;;;;;;5084239;28;20448;-95
2021/03/27 16:31:18;;;;;;;10.03;8.70;;;;;;;;;;5101971;28;20432;-96
2021/03/27 16:33:50;;;;;;;12.37;11.00;;;;;;;;;;5091165;28;20461;-96
2021/03/27 16:36:23;;;;;;;11.07;8.70;;;;;;;;;;5088209;28;20490;-96
2021/03/27 16:39:03;;;;;;;12.83;10.57;;;;;;;;;;5092196;28;21024;-96
2021/03/27 16:41:38;;;;;;;19.00;11.33;;;;;;;;;;5091308;28;20453;-95
2021/03/27 16:44:07;;;;;;;14.70;11.80;;;;;;;;;;5090920;28;20453;-95
2021/03/27 16:46:34;;;;;;;19.03;13.20;;;;;;;;;;5094743;28;20672;-95
2021/03/27 16:49:17;;;;;;;22.97;15.50;;;;;;;;;;5104263;28;20456;-94
2021/03/27 16:51:51;;;;;;;39.27;19.27;;;;;;;;;;5091584;28;20457;-94
2021/03/27 16:54:28;;;;;;;32.13;20.07;;;;;;;;;;5091956;28;20453;-94
2021/03/27 16:56:57;;;;;;;26.90;17.43;;;;;;;;;;5095283;28;20491;-94
2021/03/27 16:59:28;;;;;;;31.50;19.10;;;;;;;;;;5093978;28;20444;-94
2021/03/27 17:01:59;;;;;;;28.10;18.40;;;;;;;;;;5092482;28;20448;-94
2021/03/27 17:04:33;;;;;;;25.43;18.30;;;;;;;;;;5094900;28;20461;-95
2021/03/27 17:07:03;;;;;;;27.10;18.80;;;;;;;;;;5094237;28;20471;-96
2021/03/27 17:09:31;;;;;;;27.03;18.00;;;;;;;;;;5094532;28;20458;-96
2021/03/27 17:12:05;;;;;;;19.43;14.13;;;;;;;;;;5099190;28;20455;-96
2021/03/27 17:14:37;;;;;;;20.87;15.73;;;;;;;;;;5095377;28;20526;-96
2021/03/27 17:17:10;;;;;;;22.47;16.50;;;;;;;;;;5092177;28;20513;-96
2021/03/27 17:19:38;;;;;;;23.00;16.63;;;;;;;;;;5091547;28;20486;-96
2021/03/27 17:22:34;;;;;;;20.77;14.47;;;;;;;;;;5088941;28;20457;-96
2021/03/27 17:25:11;;;;;;;20.97;13.23;;;;;;;;;;5087446;28;20454;-96
2021/03/27 17:27:39;;;;;;;20.90;13.20;;;;;;;;;;5089797;28;20467;-96
2021/03/27 17:30:11;;;;;;;16.63;13.03;;;;;;;;;;5102412;28;20449;-96
2021/03/27 17:32:50;;;;;;;19.10;14.47;;;;;;;;;;5085244;28;20471;-95
2021/03/27 17:35:23;;;;;;;20.83;15.27;;;;;;;;;;5101420;28;20467;-96
2021/03/27 17:37:53;;;;;;;23.40;17.30;;;;;;;;;;5095830;28;20459;-96
2021/03/27 17:40:33;;;;;;;22.97;16.93;;;;;;;;;;5104045;28;20463;-96
2021/03/27 17:43:07;;;;;;;25.50;16.40;;;;;;;;;;5098854;28;20442;-96
2021/03/27 17:45:47;;;;;;;24.40;18.23;;;;;;;;;;5104240;28;20548;-96
2021/03/27 17:48:24;;;;;;;31.03;20.20;;;;;;;;;;5099148;28;20450;-96
2021/03/27 17:51:09;;;;;;;18.90;15.13;;;;;;;;;;5095145;28;20455;-96
2021/03/27 17:53:58;;;;;;;17.67;13.20;;;;;;;;;;5108964;28;20472;-96
2021/03/27 17:56:31;;;;;;;16.67;12.17;;;;;;;;;;5095922;28;20480;-96
2021/03/27 17:59:09;;;;;;;20.60;13.97;;;;;;;;;;5098874;28;21875;-96
2021/03/27 18:01:41;;;;;;;18.73;14.20;;;;;;;;;;5098295;28;20470;-96
2021/03/27 18:04:10;;;;;;;18.87;14.97;;;;;;;;;;5094063;28;20467;-96
2021/03/27 18:06:39;;;;;;;22.57;17.00;;;;;;;;;;5085864;28;20478;-94
2021/03/27 18:09:07;;;;;;;22.50;16.77;;;;;;;;;;5097640;28;20476;-96
2021/03/27 18:11:52;;;;;;;23.90;14.87;;;;;;;;;;5100883;28;20539;-95
2021/03/27 18:14:35;;;;;;;21.03;13.70;;;;;;;;;;5066094;28;20449;-96
2021/03/27 18:17:10;;;;;;;20.20;14.23;;;;;;;;;;5063091;28;20547;-94
2021/03/27 18:19:40;;;;;;;17.43;13.00;;;;;;;;;;5091888;28;20482;-95
2021/03/27 18:22:08;;;;;;;18.70;14.20;;;;;;;;;;5090786;28;20452;-94
2021/03/27 18:24:37;;;;;;;17.27;14.03;;;;;;;;;;5080623;28;20467;-96
2021/03/27 18:27:11;;;;;;;23.60;16.33;;;;;;;;;;5110076;28;20471;-96
2021/03/27 18:29:38;;;;;;;21.33;15.83;;;;;;;;;;5089686;28;20454;-96
2021/03/27 18:32:10;;;;;;;20.73;15.73;;;;;;;;;;5094888;28;20449;-96
2021/03/27 18:34:39;;;;;;;20.93;15.27;;;;;;;;;;5096719;28;20458;-96
2021/03/27 18:37:09;;;;;;;22.13;15.40;;;;;;;;;;5093983;28;21007;-96
2021/03/27 18:39:40;;;;;;;24.90;15.60;;;;;;;;;;5094783;28;20462;-95
2021/03/27 18:42:14;;;;;;;18.10;14.20;;;;;;;;;;5102418;28;20448;-96
2021/03/27 18:47:42;;;;;;;19.03;14.83;;;;;;;;;;5093278;28;20449;-96
2021/03/27 18:50:23;;;;;;;19.57;14.33;;;;;;;;;;5089682;28;20465;-94
2021/03/27 18:52:51;;;;;;;19.97;15.47;;;;;;;;;;5084949;28;20468;-96
2021/03/27 18:55:21;;;;;;;20.13;15.33;;;;;;;;;;5082474;28;20471;-95
2021/03/27 18:57:51;;;;;;;28.17;21.90;;;;;;;;;;5083991;28;20457;-96
2021/03/27 19:00:21;;;;;;;25.07;19.27;;;;;;;;;;5095341;28;20476;-95
2021/03/27 19:03:04;;;;;;;24.60;19.10;;;;;;;;;;5093931;28;20457;-95
2021/03/27 19:05:33;;;;;;;23.80;18.80;;;;;;;;;;5093032;28;20451;-94
2021/03/27 19:08:08;;;;;;;27.50;20.10;;;;;;;;;;5102856;28;20951;-94
2021/03/27 19:10:35;;;;;;;24.70;19.00;;;;;;;;;;5103651;28;20468;-95
2021/03/27 19:13:09;;;;;;;29.30;19.73;;;;;;;;;;5096316;28;20520;-96
2021/03/27 19:15:37;;;;;;;24.60;19.27;;;;;;;;;;5093267;28;20473;-96
2021/03/27 19:18:07;;;;;;;24.20;18.97;;;;;;;;;;5108427;28;20443;-96
2021/03/27 19:20:36;;;;;;;28.20;20.60;;;;;;;;;;5108751;28;20475;-96
2021/03/27 19:23:06;;;;;;;27.80;18.73;;;;;;;;;;5095871;28;20479;-96
2021/03/27 19:25:35;;;;;;;30.00;18.97;;;;;;;;;;5095891;28;20457;-96
2021/03/27 19:28:10;;;;;;;24.97;18.27;;;;;;;;;;5101105;28;20457;-96
2021/03/27 19:30:44;;;;;;;28.90;18.60;;;;;;;;;;5076145;28;20449;-94
2021/03/27 19:36:08;;;;;;;23.10;18.00;;;;;;;;;;5106765;28;20484;-96
2021/03/27 19:38:44;;;;;;;26.03;18.60;;;;;;;;;;5100401;28;20432;-96
2021/03/27 19:41:12;;;;;;;26.93;19.13;;;;;;;;;;5114085;28;20435;-96
2021/03/27 19:43:43;;;;;;;24.50;18.47;;;;;;;;;;5100873;28;20457;-96
2021/03/27 19:46:29;;;;;;;24.77;18.60;;;;;;;;;;5101161;28;20460;-96
2021/03/27 19:49:00;;;;;;;28.60;18.87;;;;;;;;;;5098246;28;20460;-96
2021/03/27 19:51:33;;;;;;;28.83;18.60;;;;;;;;;;5105415;28;20482;-96
2021/03/27 19:54:04;;;;;;;23.30;17.60;;;;;;;;;;5089277;28;20468;-96
2021/03/27 19:56:36;;;;;;;27.63;18.40;;;;;;;;;;5095434;28;20479;-96
2021/03/27 19:59:11;;;;;;;27.70;19.13;;;;;;;;;;5092459;28;20485;-96
2021/03/27 20:01:44;;;;;;;26.83;19.77;;;;;;;;;;5098838;28;20471;-96
2021/03/27 20:04:14;;;;;;;26.43;19.27;;;;;;;;;;5097707;28;20924;-95
2021/03/27 20:06:43;;;;;;;30.10;19.17;;;;;;;;;;5094197;28;20442;-95
2021/03/27 20:09:27;;;;;;;27.07;18.30;;;;;;;;;;5098480;28;20467;-96
2021/03/27 20:12:02;;;;;;;26.10;17.90;;;;;;;;;;5104018;28;20668;-96
2021/03/27 20:14:30;;;;;;;26.30;19.23;;;;;;;;;;5096751;28;20487;-93
2021/03/27 20:16:59;;;;;;;25.83;18.40;;;;;;;;;;5099279;28;20495;-95
2021/03/27 20:19:28;;;;;;;21.23;16.40;;;;;;;;;;5086598;28;20477;-95
2021/03/27 20:21:59;;;;;;;23.50;17.00;;;;;;;;;;5100656;28;20495;-95
2021/03/27 20:24:28;;;;;;;25.17;16.37;;;;;;;;;;5089350;28;20464;-95
2021/03/27 20:27:01;;;;;;;20.20;16.47;;;;;;;;;;5096202;28;20449;-95
2021/03/27 20:29:29;;;;;;;27.33;17.10;;;;;;;;;;5100380;28;20458;-96
2021/03/27 20:32:06;;;;;;;26.10;18.07;;;;;;;;;;5093194;28;20456;-96
2021/03/27 20:34:37;;;;;;;26.53;19.10;;;;;;;;;;5100587;28;20429;-96
2021/03/27 20:37:07;;;;;;;26.70;18.43;;;;;;;;;;5105870;28;20497;-96
2021/03/27 20:39:40;;;;;;;26.80;18.83;;;;;;;;;;5094288;28;20470;-96
2021/03/27 20:42:30;;;;;;;24.50;18.73;;;;;;;;;;5094044;28;20452;-95
2021/03/27 20:45:23;;;;;;;28.60;20.83;;;;;;;;;;5100888;28;20463;-96
2021/03/27 20:47:55;;;;;;;26.97;19.10;;;;;;;;;;5093243;28;20503;-96
2021/03/27 20:50:43;;;;;;;31.30;21.13;;;;;;;;;;5099072;28;20489;-96
2021/03/27 20:53:16;;;;;;;29.20;20.97;;;;;;;;;;5092001;28;20488;-96
2021/03/27 20:56:02;;;;;;;32.93;23.77;;;;;;;;;;5102881;28;20489;-96
2021/03/27 21:09:33;;;;;;;31.10;22.20;;;;;;;;;;5298904;22;20221;-96
2021/03/27 21:12:07;;;;;;;33.30;22.83;;;;;;;;;;5112491;28;20189;-96
2021/03/27 21:14:40;;;;;;;32.07;22.63;;;;;;;;;;5090125;28;20445;-96
2021/03/27 21:43:17;;;;;;;18.83;13.85;;;;;;;;;;5978412;22;20485;-95
2021/03/27 21:45:56;;;;;;;19.13;13.63;;;;;;;;;;5052040;28;20178;-94
